createdAt,value
2019-05-29T00:00:40.517Z,4.08
2019-05-29T00:03:10.546Z,3.83
2019-05-29T00:05:38.903Z,4.53
2019-05-29T00:08:08.235Z,3.60
2019-05-29T00:10:36.589Z,4.03
2019-05-29T00:13:04.745Z,4.60
2019-05-29T00:15:32.889Z,3.40
2019-05-29T00:18:03.541Z,4.10
2019-05-29T00:20:31.671Z,4.22
2019-05-29T00:22:59.812Z,4.47
2019-05-29T00:25:28.030Z,4.53
2019-05-29T00:27:56.234Z,3.70
2019-05-29T00:30:24.341Z,4.00
2019-05-29T00:32:52.570Z,4.37
2019-05-29T00:35:20.687Z,4.08
2019-05-29T00:37:51.928Z,3.83
2019-05-29T00:40:20.749Z,4.05
2019-05-29T00:42:48.897Z,4.40
2019-05-29T00:45:17.720Z,4.90
2019-05-29T00:47:46.113Z,4.42
2019-05-29T00:50:16.901Z,4.05
2019-05-29T00:52:45.097Z,4.22
2019-05-29T00:55:14.697Z,3.98
2019-05-29T00:57:43.053Z,4.03
2019-05-29T01:00:11.740Z,4.20
2019-05-29T01:02:39.890Z,4.85
2019-05-29T01:05:08.123Z,4.50
2019-05-29T01:07:36.297Z,4.37
2019-05-29T01:10:05.984Z,4.53
2019-05-29T01:12:36.491Z,4.05
2019-05-29T01:15:05.939Z,4.50
2019-05-29T01:17:34.121Z,4.55
2019-05-29T01:20:05.373Z,4.28
2019-05-29T01:22:33.632Z,4.42
2019-05-29T01:25:01.781Z,4.58
2019-05-29T01:27:29.935Z,4.78
2019-05-29T01:29:58.097Z,4.58
2019-05-29T01:32:26.300Z,4.60
2019-05-29T01:34:55.948Z,4.50
2019-05-29T01:37:24.394Z,4.67
2019-05-29T01:39:52.649Z,4.53
2019-05-29T01:42:23.883Z,4.58
2019-05-29T01:45:06.643Z,4.15
2019-05-29T01:47:24.018Z,3.95
2019-05-29T01:49:52.157Z,4.45
2019-05-29T01:52:23.801Z,4.45
2019-05-29T01:54:52.039Z,4.78
2019-05-29T01:57:20.167Z,4.50
2019-05-29T01:59:48.293Z,4.62
2019-05-29T02:02:17.699Z,4.22
2019-05-29T02:04:46.019Z,4.10
2019-05-29T02:07:14.163Z,4.30
2019-05-29T02:09:42.466Z,4.40
2019-05-29T02:12:10.644Z,5.30
2019-05-29T02:14:38.786Z,4.55
2019-05-29T02:17:06.969Z,4.58
2019-05-29T02:19:35.107Z,4.62
2019-05-29T02:22:03.241Z,5.20
2019-05-29T02:24:31.474Z,4.33
2019-05-29T02:26:59.613Z,4.55
2019-05-29T02:29:27.789Z,5.20
2019-05-29T02:31:55.907Z,5.25
2019-05-29T02:34:25.529Z,4.28
2019-05-29T02:36:54.536Z,4.90
2019-05-29T02:39:23.457Z,4.95
2019-05-29T02:41:52.575Z,5.00
2019-05-29T02:44:21.170Z,5.22
2019-05-29T02:46:49.568Z,4.47
2019-05-29T02:49:19.977Z,5.00
2019-05-29T02:51:48.661Z,4.10
2019-05-29T02:54:16.837Z,4.42
2019-05-29T02:56:45.034Z,4.80
2019-05-29T02:59:13.179Z,4.62
2019-05-29T03:01:41.394Z,4.87
2019-05-29T03:04:09.558Z,4.10
2019-05-29T03:06:37.904Z,4.75
2019-05-29T03:09:06.499Z,4.65
2019-05-29T03:11:34.657Z,5.17
2019-05-29T03:14:02.799Z,4.53
2019-05-29T03:16:32.855Z,4.60
2019-05-29T03:19:00.849Z,5.33
2019-05-29T03:21:30.581Z,5.00
2019-05-29T03:24:01.775Z,4.83
2019-05-29T03:26:31.257Z,5.12
2019-05-29T03:28:59.796Z,4.67
2019-05-29T03:31:32.204Z,4.22
2019-05-29T03:33:58.082Z,4.75
2019-05-29T03:36:28.395Z,4.62
2019-05-29T03:38:56.295Z,5.00
2019-05-29T03:41:26.185Z,4.53
2019-05-29T03:43:54.360Z,4.37
2019-05-29T03:46:31.450Z,4.78
2019-05-29T03:48:52.493Z,4.97
2019-05-29T03:51:20.665Z,4.65
2019-05-29T03:53:48.791Z,4.40
2019-05-29T03:56:16.948Z,4.62
2019-05-29T03:58:45.107Z,4.08
2019-05-29T04:01:13.269Z,5.12
2019-05-29T04:03:41.446Z,4.65
2019-05-29T04:06:09.541Z,5.08
2019-05-29T04:08:38.352Z,4.72
2019-05-29T04:11:07.625Z,5.87
2019-05-29T04:13:36.597Z,5.22
2019-05-29T04:16:06.550Z,5.62
2019-05-29T04:18:35.923Z,5.25
2019-05-29T04:21:04.316Z,5.42
2019-05-29T04:23:34.644Z,4.97
2019-05-29T04:26:04.284Z,5.50
2019-05-29T04:28:34.923Z,5.53
2019-05-29T04:31:03.132Z,5.55
2019-05-29T04:33:32.633Z,5.65
2019-05-29T04:36:01.315Z,5.70
2019-05-29T04:38:30.975Z,5.47
2019-05-29T04:40:59.385Z,5.55
2019-05-29T04:43:28.839Z,6.17
2019-05-29T04:45:57.050Z,5.85
2019-05-29T04:48:25.307Z,6.83
2019-05-29T04:50:53.451Z,6.05
2019-05-29T04:53:21.624Z,6.25
2019-05-29T04:55:49.767Z,6.42
2019-05-29T04:58:17.951Z,6.67
2019-05-29T05:00:58.583Z,6.25
2019-05-29T05:03:16.069Z,6.22
2019-05-29T05:05:44.245Z,5.70
2019-05-29T05:08:12.436Z,5.97
2019-05-29T05:10:41.379Z,5.83
2019-05-29T05:13:09.540Z,5.78
2019-05-29T05:15:38.185Z,5.12
2019-05-29T05:18:08.256Z,5.33
2019-05-29T05:20:36.495Z,4.87
2019-05-29T05:23:05.276Z,4.70
2019-05-29T05:25:38.359Z,4.83
2019-05-29T05:28:06.565Z,5.03
2019-05-29T05:30:34.786Z,4.90
2019-05-29T05:33:04.666Z,5.25
2019-05-29T05:35:32.987Z,4.67
2019-05-29T05:38:03.922Z,4.80
2019-05-29T05:40:32.991Z,4.45
2019-05-29T05:43:04.553Z,3.80
2019-05-29T05:48:03.193Z,2.92
2019-05-29T05:50:31.407Z,2.55
2019-05-29T05:52:59.519Z,2.80
2019-05-29T05:55:28.843Z,3.00
2019-05-29T05:57:57.005Z,2.98
2019-05-29T06:00:34.139Z,2.80
2019-05-29T06:03:02.354Z,3.05
2019-05-29T06:05:31.898Z,2.95
2019-05-29T06:08:00.323Z,2.47
2019-05-29T06:10:28.439Z,3.52
2019-05-29T06:12:56.595Z,3.22
2019-05-29T06:15:24.925Z,4.17
2019-05-29T06:18:17.129Z,3.15
2019-05-29T06:20:22.953Z,3.40
2019-05-29T06:22:51.123Z,2.95
2019-05-29T06:25:19.253Z,3.02
2019-05-29T06:27:47.397Z,2.47
2019-05-29T06:30:15.984Z,2.10
2019-05-29T06:32:45.238Z,2.22
2019-05-29T06:35:14.312Z,1.65
2019-05-29T06:37:43.648Z,1.55
2019-05-29T06:40:12.298Z,11.40
2019-05-29T06:42:40.469Z,3.10
2019-05-29T06:45:09.307Z,2.10
2019-05-29T06:47:38.605Z,1.40
2019-05-29T06:50:07.244Z,1.07
2019-05-29T06:52:35.425Z,1.30
2019-05-29T06:55:03.828Z,1.05
2019-05-29T06:57:32.021Z,0.70
2019-05-29T07:00:00.150Z,1.10
2019-05-29T07:02:31.681Z,0.78
2019-05-29T07:04:58.187Z,1.00
2019-05-29T07:07:26.380Z,0.75
2019-05-29T07:09:58.734Z,0.40
2019-05-29T07:12:24.486Z,0.53
2019-05-29T07:14:52.658Z,0.80
2019-05-29T07:17:20.878Z,0.60
2019-05-29T07:20:00.734Z,0.53
2019-05-29T07:22:18.917Z,0.62
2019-05-29T07:24:47.097Z,0.82
2019-05-29T07:27:15.257Z,0.60
2019-05-29T07:29:43.592Z,0.65
2019-05-29T07:32:11.679Z,0.88
2019-05-29T07:34:53.718Z,0.88
2019-05-29T07:37:09.699Z,1.02
2019-05-29T07:39:37.871Z,0.78
2019-05-29T07:42:06.008Z,0.70
2019-05-29T07:44:34.168Z,0.70
2019-05-29T07:47:02.326Z,0.70
2019-05-29T07:49:39.048Z,0.80
2019-05-29T07:52:00.401Z,0.50
2019-05-29T07:54:28.538Z,0.72
2019-05-29T07:56:56.694Z,0.70
2019-05-29T07:59:24.807Z,0.50
2019-05-29T08:01:53.010Z,0.82
2019-05-29T08:04:21.194Z,0.45
2019-05-29T08:06:54.236Z,0.40
2019-05-29T08:09:19.294Z,0.40
2019-05-29T08:11:47.736Z,0.33
2019-05-29T08:14:15.909Z,0.45
2019-05-29T08:16:44.107Z,0.50
2019-05-29T08:19:12.195Z,0.37
2019-05-29T08:21:41.036Z,0.62
2019-05-29T08:24:10.176Z,0.60
2019-05-29T08:26:38.318Z,0.72
2019-05-29T08:29:06.494Z,4.97
2019-05-29T08:31:34.647Z,2.25
2019-05-29T08:34:02.811Z,0.50
2019-05-29T08:36:30.940Z,0.60
2019-05-29T08:38:59.103Z,0.70
2019-05-29T08:41:27.310Z,0.98
2019-05-29T08:43:55.487Z,0.65
2019-05-29T08:46:23.640Z,0.50
2019-05-29T08:48:52.269Z,0.50
2019-05-29T08:51:20.600Z,0.45
2019-05-29T08:53:52.484Z,0.30
2019-05-29T08:56:20.893Z,0.30
2019-05-29T08:58:52.566Z,0.42
2019-05-29T09:01:20.810Z,0.50
2019-05-29T09:03:51.369Z,0.40
2019-05-29T09:06:19.998Z,0.60
2019-05-29T09:08:49.932Z,0.55
2019-05-29T09:11:18.095Z,0.33
2019-05-29T09:13:46.274Z,0.40
2019-05-29T09:16:17.288Z,0.60
2019-05-29T09:18:45.493Z,0.45
2019-05-29T09:21:14.434Z,0.40
2019-05-29T09:23:43.577Z,0.42
2019-05-29T09:26:19.047Z,0.50
2019-05-29T09:28:44.715Z,0.40
2019-05-29T09:31:15.089Z,0.40
2019-05-29T09:33:42.525Z,0.42
2019-05-29T09:36:13.954Z,0.55
2019-05-29T09:38:44.234Z,0.37
2019-05-29T09:41:21.703Z,0.50
2019-05-29T09:43:58.674Z,0.50
2019-05-29T09:46:20.246Z,0.50
2019-05-29T09:48:50.357Z,0.30
2019-05-29T09:51:21.897Z,0.40
2019-05-29T09:53:50.436Z,1.22
2019-05-29T09:56:19.509Z,0.30
2019-05-29T09:58:50.685Z,1.00
2019-05-29T10:01:24.154Z,0.40
2019-05-29T10:03:51.069Z,0.90
2019-05-29T10:06:19.401Z,0.85
2019-05-29T10:08:47.574Z,0.72
2019-05-29T10:11:15.830Z,0.80
2019-05-29T10:13:45.011Z,0.90
2019-05-29T10:16:13.351Z,0.82
2019-05-29T10:18:41.561Z,0.70
2019-05-29T10:21:17.633Z,1.00
2019-05-29T10:23:45.906Z,0.62
2019-05-29T10:26:14.130Z,0.60
2019-05-29T10:28:55.632Z,0.72
2019-05-29T10:31:12.212Z,0.80
2019-05-29T10:33:42.379Z,0.70
2019-05-29T10:36:10.631Z,0.50
2019-05-29T10:38:42.756Z,0.60
2019-05-29T10:41:10.961Z,0.60
2019-05-29T10:43:39.154Z,0.50
2019-05-29T10:46:07.367Z,0.75
2019-05-29T10:48:35.566Z,0.60
2019-05-29T10:51:05.236Z,0.60
2019-05-29T10:53:33.433Z,0.53
2019-05-29T10:56:01.638Z,0.65
2019-05-29T10:58:29.760Z,0.70
2019-05-29T11:00:57.912Z,0.80
2019-05-29T11:03:26.151Z,1.10
2019-05-29T11:05:56.617Z,1.05
2019-05-29T11:08:24.871Z,1.00
2019-05-29T11:10:54.165Z,0.85
2019-05-29T11:13:22.361Z,0.80
2019-05-29T11:15:50.836Z,0.80
2019-05-29T11:18:19.016Z,1.10
2019-05-29T11:20:49.622Z,0.90
2019-05-29T11:23:17.047Z,0.98
2019-05-29T11:25:49.888Z,0.95
2019-05-29T11:28:18.488Z,1.00
2019-05-29T11:30:46.621Z,0.80
2019-05-29T11:33:14.957Z,0.80
2019-05-29T11:35:57.247Z,0.70
2019-05-29T11:38:13.158Z,0.72
2019-05-29T11:40:41.517Z,0.72
2019-05-29T11:43:09.807Z,0.80
2019-05-29T11:45:37.988Z,0.82
2019-05-29T11:48:06.058Z,1.10
2019-05-29T11:50:34.206Z,0.70
2019-05-29T11:53:02.689Z,0.90
2019-05-29T11:55:30.992Z,0.65
2019-05-29T11:58:01.949Z,0.53
2019-05-29T12:00:29.449Z,0.45
2019-05-29T12:02:57.800Z,0.47
2019-05-29T12:05:26.023Z,0.60
2019-05-29T12:07:55.498Z,0.80
2019-05-29T12:10:23.884Z,0.70
2019-05-29T12:12:53.257Z,0.50
2019-05-29T12:15:21.943Z,0.53
2019-05-29T12:17:50.098Z,0.60
2019-05-29T12:20:27.896Z,0.65
2019-05-29T12:23:12.956Z,0.40
2019-05-29T12:25:18.452Z,0.40
2019-05-29T12:27:46.766Z,0.70
2019-05-29T12:30:15.851Z,0.30
2019-05-29T12:32:44.028Z,0.33
2019-05-29T12:35:12.579Z,0.72
2019-05-29T12:37:40.744Z,0.85
2019-05-29T12:40:09.675Z,0.40
2019-05-29T12:42:44.800Z,0.75
2019-05-29T12:45:14.513Z,0.90
2019-05-29T12:47:42.627Z,1.00
2019-05-29T12:50:11.461Z,0.90
2019-05-29T12:52:39.756Z,1.00
2019-05-29T12:55:09.683Z,1.10
2019-05-29T12:57:37.895Z,1.20
2019-05-29T13:00:06.540Z,0.90
2019-05-29T13:02:34.660Z,0.90
2019-05-29T13:05:09.341Z,0.90
2019-05-29T13:07:33.595Z,1.20
2019-05-29T13:10:02.842Z,7.40
2019-05-29T13:12:31.145Z,2.65
2019-05-29T13:15:00.619Z,1.07
2019-05-29T13:17:28.830Z,1.00
2019-05-29T13:20:06.825Z,1.30
2019-05-29T13:22:27.170Z,1.27
2019-05-29T13:24:55.320Z,1.30
2019-05-29T13:27:24.071Z,1.40
2019-05-29T13:29:56.562Z,1.60
2019-05-29T13:32:22.250Z,1.10
2019-05-29T13:34:50.403Z,1.02
2019-05-29T13:37:18.562Z,1.67
2019-05-29T13:39:46.668Z,1.50
2019-05-29T13:42:14.869Z,1.47
2019-05-29T13:44:43.302Z,1.70
2019-05-29T13:47:11.649Z,1.60
2019-05-29T13:49:39.819Z,1.65
2019-05-29T13:52:12.516Z,1.95
2019-05-29T13:54:40.956Z,1.62
2019-05-29T13:57:09.089Z,1.77
2019-05-29T13:59:37.257Z,1.60
2019-05-29T14:02:06.719Z,1.22
2019-05-29T14:04:35.280Z,1.52
2019-05-29T14:07:04.938Z,1.00
2019-05-29T14:09:33.238Z,0.98
2019-05-29T14:12:01.409Z,0.70
2019-05-29T14:14:29.676Z,0.90
2019-05-29T14:16:57.785Z,0.90
2019-05-29T14:19:25.998Z,0.90
2019-05-29T14:21:54.150Z,1.00
2019-05-29T14:24:29.282Z,0.70
2019-05-29T14:26:52.264Z,1.20
2019-05-29T14:29:20.424Z,0.90
2019-05-29T14:31:48.561Z,0.80
2019-05-29T14:34:16.705Z,0.70
2019-05-29T14:36:44.909Z,1.20
2019-05-29T14:39:13.090Z,1.30
2019-05-29T14:41:41.277Z,1.27
2019-05-29T14:44:09.956Z,1.20
2019-05-29T14:46:38.268Z,0.95
2019-05-29T14:49:06.763Z,1.07
2019-05-29T14:51:34.895Z,0.80
2019-05-29T14:54:03.044Z,1.22
2019-05-29T14:56:31.538Z,0.85
2019-05-29T14:58:59.768Z,0.90
2019-05-29T15:01:27.944Z,1.27
2019-05-29T15:03:56.097Z,1.00
2019-05-29T15:06:24.254Z,0.85
2019-05-29T15:08:52.440Z,0.80
2019-05-29T15:11:23.038Z,0.70
2019-05-29T15:13:51.306Z,1.05
2019-05-29T15:16:19.482Z,1.10
2019-05-29T15:18:47.666Z,1.17
2019-05-29T15:21:15.766Z,1.00
2019-05-29T15:23:44.360Z,1.50
2019-05-29T15:26:13.524Z,1.20
2019-05-29T15:28:41.873Z,1.20
2019-05-29T15:31:10.423Z,1.20
2019-05-29T15:33:38.609Z,1.12
2019-05-29T15:36:06.975Z,1.10
2019-05-29T15:38:35.112Z,1.10
2019-05-29T15:41:03.247Z,1.02
2019-05-29T15:43:31.516Z,1.40
2019-05-29T15:45:59.766Z,1.42
2019-05-29T15:48:27.895Z,1.10
2019-05-29T15:50:56.095Z,1.25
2019-05-29T15:53:24.273Z,1.00
2019-05-29T15:55:52.420Z,1.47
2019-05-29T15:58:20.591Z,1.40
2019-05-29T16:00:48.737Z,1.30
2019-05-29T16:03:17.779Z,1.70
2019-05-29T16:05:46.114Z,1.60
2019-05-29T16:08:14.417Z,1.60
2019-05-29T16:10:42.643Z,1.60
2019-05-29T16:13:13.157Z,1.70
2019-05-29T16:18:21.827Z,2.10
2019-05-29T16:20:38.501Z,1.55
2019-05-29T16:23:06.649Z,2.05
2019-05-29T16:25:40.615Z,2.40
2019-05-29T16:28:08.563Z,2.15
2019-05-29T16:30:36.698Z,2.00
2019-05-29T16:33:04.908Z,2.30
2019-05-29T16:35:37.135Z,1.95
2019-05-29T16:38:04.927Z,2.20
2019-05-29T16:40:34.539Z,2.22
2019-05-29T16:43:02.676Z,1.97
2019-05-29T16:45:30.840Z,1.95
2019-05-29T16:47:58.957Z,2.55
2019-05-29T16:50:27.164Z,2.20
2019-05-29T16:52:55.344Z,1.62
2019-05-29T16:55:23.481Z,2.55
2019-05-29T16:57:51.703Z,2.52
2019-05-29T17:00:21.693Z,2.40
2019-05-29T17:02:50.077Z,1.80
2019-05-29T17:05:20.298Z,1.70
2019-05-29T17:07:48.472Z,1.67
2019-05-29T17:10:18.386Z,1.70
2019-05-29T17:12:46.668Z,2.30
2019-05-29T17:15:17.142Z,2.10
2019-05-29T17:17:51.958Z,2.40
2019-05-29T17:20:39.300Z,2.50
2019-05-29T17:23:07.487Z,2.52
2019-05-29T17:25:35.636Z,2.50
2019-05-29T17:28:03.832Z,2.45
2019-05-29T17:30:31.973Z,2.35
2019-05-29T17:33:00.114Z,2.27
2019-05-29T17:35:28.233Z,2.65
2019-05-29T17:37:56.468Z,3.12
2019-05-29T17:40:25.530Z,2.90
2019-05-29T17:42:53.757Z,3.05
2019-05-29T17:45:24.246Z,3.87
2019-05-29T17:47:51.953Z,2.95
2019-05-29T17:50:22.910Z,3.47
2019-05-29T17:52:50.157Z,3.83
2019-05-29T17:55:21.678Z,3.05
2019-05-29T18:00:18.087Z,4.78
2019-05-29T18:02:51.779Z,4.40
2019-05-29T18:05:18.315Z,5.15
2019-05-29T18:10:19.326Z,6.40
2019-05-29T18:12:46.670Z,5.95
2019-05-29T18:15:17.191Z,7.00
2019-05-29T18:20:14.595Z,6.42
2019-05-29T18:22:42.641Z,6.35
2019-05-29T18:25:11.425Z,6.25
2019-05-29T18:27:39.757Z,6.55
2019-05-29T18:30:11.611Z,6.50
2019-05-29T18:32:41.195Z,6.20
2019-05-29T18:35:09.862Z,6.50
2019-05-29T18:37:38.172Z,6.10
2019-05-29T18:40:11.440Z,6.00
2019-05-29T18:42:37.137Z,6.08
2019-05-29T18:45:19.709Z,5.22
2019-05-29T18:47:35.647Z,5.20
2019-05-29T18:50:08.583Z,4.78
2019-05-29T18:52:36.716Z,4.90
2019-05-29T18:55:06.529Z,5.03
2019-05-29T18:57:34.703Z,5.53
2019-05-29T19:00:03.525Z,4.78
2019-05-29T19:02:31.750Z,4.78
2019-05-29T19:04:59.952Z,5.70
2019-05-29T19:07:28.126Z,5.70
2019-05-29T19:09:57.330Z,6.08
2019-05-29T19:12:25.802Z,6.20
2019-05-29T19:14:53.987Z,6.22
2019-05-29T19:17:22.151Z,5.42
2019-05-29T19:19:50.398Z,5.25
2019-05-29T19:22:18.518Z,5.90
2019-05-29T19:24:46.724Z,5.55
2019-05-29T19:27:30.101Z,6.17
2019-05-29T19:29:44.898Z,6.22
2019-05-29T19:32:13.121Z,6.03
2019-05-29T19:34:41.950Z,6.67
2019-05-29T19:37:10.053Z,6.53
2019-05-29T19:39:38.498Z,6.95
2019-05-29T19:42:06.633Z,7.10
2019-05-29T19:44:34.806Z,6.65
2019-05-29T19:47:02.990Z,7.62
2019-05-29T19:49:31.237Z,7.78
2019-05-29T19:51:59.356Z,7.20
2019-05-29T19:54:27.509Z,7.35
2019-05-29T19:56:55.738Z,8.15
2019-05-29T19:59:23.940Z,7.60
2019-05-29T20:01:52.067Z,7.62
2019-05-29T20:04:20.197Z,7.85
2019-05-29T20:06:48.395Z,7.45
2019-05-29T20:09:16.542Z,8.00
2019-05-29T20:11:44.700Z,7.67
2019-05-29T20:14:12.853Z,7.78
2019-05-29T20:16:41.049Z,8.40
2019-05-29T20:19:09.238Z,8.15
2019-05-29T20:21:37.419Z,8.78
2019-05-29T20:24:05.537Z,8.98
2019-05-29T20:26:33.670Z,8.78
2019-05-29T20:29:01.807Z,8.35
2019-05-29T20:31:30.440Z,9.18
2019-05-29T20:33:59.838Z,8.78
2019-05-29T20:36:27.985Z,8.78
2019-05-29T20:38:56.218Z,9.65
2019-05-29T20:41:24.418Z,8.50
2019-05-29T20:43:52.595Z,9.08
2019-05-29T20:46:20.703Z,8.65
2019-05-29T20:48:48.872Z,9.00
2019-05-29T20:51:17.038Z,9.28
2019-05-29T20:53:45.196Z,8.68
2019-05-29T20:56:14.040Z,9.53
2019-05-29T20:58:42.206Z,8.68
2019-05-29T21:01:10.329Z,9.03
2019-05-29T21:03:38.705Z,9.05
2019-05-29T21:06:09.545Z,8.50
2019-05-29T21:08:38.930Z,8.90
2019-05-29T21:11:07.281Z,9.30
2019-05-29T21:13:35.502Z,9.10
2019-05-29T21:16:03.732Z,9.28
2019-05-29T21:18:31.974Z,9.55
2019-05-29T21:21:00.196Z,9.38
2019-05-29T21:23:28.380Z,9.18
2019-05-29T21:25:56.495Z,9.50
2019-05-29T21:28:39.244Z,9.65
2019-05-29T21:30:54.631Z,9.60
2019-05-29T21:33:22.855Z,9.33
2019-05-29T21:35:51.018Z,9.45
2019-05-29T21:38:19.197Z,9.78
2019-05-29T21:40:47.373Z,10.08
2019-05-29T21:43:15.535Z,9.75
2019-05-29T21:45:44.918Z,10.00
2019-05-29T21:48:13.336Z,9.73
2019-05-29T21:50:41.497Z,9.28
2019-05-29T21:53:09.713Z,9.15
2019-05-29T21:55:37.874Z,10.10
2019-05-29T21:58:06.013Z,9.65
2019-05-29T22:00:34.526Z,11.08
2019-05-29T22:03:02.627Z,9.95
2019-05-29T22:05:30.809Z,10.85
2019-05-29T22:07:58.982Z,10.58
2019-05-29T22:10:27.198Z,10.85
2019-05-29T22:12:56.451Z,11.55
2019-05-29T22:15:24.781Z,11.75
2019-05-29T22:17:52.967Z,11.20
2019-05-29T22:20:21.116Z,11.35
2019-05-29T22:22:49.295Z,12.78
2019-05-29T22:25:18.869Z,12.93
2019-05-29T22:27:47.032Z,12.47
2019-05-29T22:30:15.633Z,12.35
2019-05-29T22:32:44.110Z,11.50
2019-05-29T22:35:12.791Z,10.35
2019-05-29T22:37:42.278Z,10.60
2019-05-29T22:40:11.535Z,12.30
2019-05-29T22:42:39.717Z,12.88
2019-05-29T22:45:08.211Z,14.65
2019-05-29T22:47:36.407Z,14.23
2019-05-29T22:50:08.028Z,14.20
2019-05-29T22:52:36.154Z,13.25
2019-05-29T22:55:04.556Z,12.33
2019-05-29T22:57:32.729Z,12.53
2019-05-29T23:00:02.341Z,12.65
2019-05-29T23:02:30.681Z,12.03
2019-05-29T23:04:58.865Z,10.50
2019-05-29T23:07:26.991Z,9.33
2019-05-29T23:09:56.127Z,9.80
2019-05-29T23:12:24.329Z,9.95
2019-05-29T23:14:52.527Z,9.80
2019-05-29T23:17:20.672Z,9.98
2019-05-29T23:19:52.425Z,9.98
2019-05-29T23:22:23.823Z,9.20
2019-05-29T23:24:50.484Z,8.43
2019-05-29T23:27:18.655Z,9.15
2019-05-29T23:29:49.204Z,10.05
2019-05-29T23:32:16.686Z,8.78
2019-05-29T23:34:46.435Z,10.32
2019-05-29T23:37:14.647Z,8.70
2019-05-29T23:39:42.843Z,8.83
2019-05-29T23:42:11.041Z,8.25
2019-05-29T23:44:41.534Z,8.10
2019-05-29T23:47:10.129Z,8.33
2019-05-29T23:49:38.289Z,7.30
2019-05-29T23:52:06.428Z,6.92
2019-05-29T23:54:34.577Z,6.20
2019-05-29T23:57:04.177Z,5.80
2019-05-29T23:59:32.399Z,5.60
